createdAt,value
2018-07-28T00:00:11.929Z,23.27
2018-07-28T00:02:40.819Z,21.33
2018-07-28T00:05:10.098Z,23.80
2018-07-28T00:07:38.775Z,24.83
2018-07-28T00:10:11.405Z,22.83
2018-07-28T00:12:40.214Z,22.97
2018-07-28T00:15:10.550Z,22.07
2018-07-28T00:17:40.088Z,23.70
2018-07-28T00:20:10.515Z,20.77
2018-07-28T00:22:39.372Z,20.97
2018-07-28T00:25:10.674Z,23.50
2018-07-28T00:27:39.407Z,20.57
2018-07-28T00:30:10.964Z,19.40
2018-07-28T00:32:39.652Z,19.17
2018-07-28T00:35:08.617Z,23.13
2018-07-28T00:37:37.662Z,18.40
2018-07-28T00:40:07.057Z,19.30
2018-07-28T00:42:36.154Z,20.00
2018-07-28T00:45:05.715Z,20.17
2018-07-28T00:47:34.387Z,23.50
2018-07-28T00:50:03.387Z,22.10
2018-07-28T00:52:32.045Z,20.17
2018-07-28T00:55:00.770Z,22.97
2018-07-28T00:57:29.462Z,24.77
2018-07-28T00:59:58.151Z,25.03
2018-07-28T01:02:26.958Z,23.17
2018-07-28T01:04:55.698Z,26.33
2018-07-28T01:07:24.410Z,24.80
2018-07-28T01:09:53.172Z,25.87
2018-07-28T01:12:21.845Z,26.17
2018-07-28T01:14:50.607Z,26.77
2018-07-28T01:17:19.268Z,25.83
2018-07-28T01:19:47.998Z,27.83
2018-07-28T01:22:16.534Z,23.40
2018-07-28T01:24:45.138Z,23.80
2018-07-28T01:27:13.928Z,26.03
2018-07-28T01:29:42.628Z,23.70
2018-07-28T01:32:11.311Z,24.23
2018-07-28T01:34:40.028Z,21.90
2018-07-28T01:37:08.763Z,27.30
2018-07-28T01:39:37.375Z,25.17
2018-07-28T01:42:06.200Z,23.97
2018-07-28T01:44:34.886Z,24.27
2018-07-28T01:47:03.568Z,25.53
2018-07-28T01:49:32.167Z,28.93
2018-07-28T01:52:03.196Z,23.93
2018-07-28T01:54:31.858Z,26.40
2018-07-28T01:57:00.526Z,24.97
2018-07-28T01:59:29.142Z,22.70
2018-07-28T02:01:57.725Z,25.80
2018-07-28T02:04:26.437Z,25.43
2018-07-28T02:06:55.058Z,24.93
2018-07-28T02:09:23.535Z,22.23
2018-07-28T02:11:52.188Z,23.77
2018-07-28T02:14:20.814Z,22.20
2018-07-28T02:16:49.570Z,26.90
2018-07-28T02:19:18.299Z,22.40
2018-07-28T02:21:46.991Z,22.90
2018-07-28T02:24:15.668Z,24.53
2018-07-28T02:26:44.306Z,26.57
2018-07-28T02:29:12.975Z,25.50
2018-07-28T02:31:41.800Z,28.07
2018-07-28T02:34:10.499Z,25.80
2018-07-28T02:36:38.926Z,25.40
2018-07-28T02:39:10.006Z,22.67
2018-07-28T02:41:39.006Z,25.87
2018-07-28T02:44:07.968Z,26.83
2018-07-28T02:46:36.983Z,25.40
2018-07-28T02:49:06.455Z,27.50
2018-07-28T02:51:35.071Z,24.57
2018-07-28T02:54:03.551Z,28.13
2018-07-28T02:56:32.208Z,24.47
2018-07-28T02:59:00.846Z,28.20
2018-07-28T03:01:29.486Z,23.33
2018-07-28T03:03:58.186Z,24.03
2018-07-28T03:06:26.786Z,24.27
2018-07-28T03:08:55.239Z,23.63
2018-07-28T03:11:23.924Z,24.20
2018-07-28T03:13:52.533Z,24.00
2018-07-28T03:16:21.099Z,23.60
2018-07-28T03:18:49.753Z,22.57
2018-07-28T03:21:18.458Z,23.77
2018-07-28T03:23:47.198Z,25.40
2018-07-28T03:26:15.914Z,22.97
2018-07-28T03:28:44.646Z,23.50
2018-07-28T03:31:13.098Z,22.30
2018-07-28T03:33:41.768Z,23.53
2018-07-28T03:36:10.406Z,26.30
2018-07-28T03:38:39.031Z,21.50
2018-07-28T03:41:07.946Z,19.83
2018-07-28T03:43:36.705Z,22.60
2018-07-28T03:46:05.788Z,23.70
2018-07-28T03:48:34.433Z,20.63
2018-07-28T03:51:02.892Z,22.27
2018-07-28T03:53:31.448Z,24.93
2018-07-28T03:56:00.043Z,22.90
2018-07-28T03:58:28.631Z,25.57
2018-07-28T04:00:57.284Z,26.93
2018-07-28T04:03:25.933Z,28.27
2018-07-28T04:05:54.499Z,23.00
2018-07-28T04:08:23.027Z,28.80
2018-07-28T04:10:51.686Z,25.73
2018-07-28T04:13:20.327Z,26.50
2018-07-28T04:15:49.003Z,28.27
2018-07-28T04:18:17.640Z,26.73
2018-07-28T04:20:46.131Z,27.87
2018-07-28T04:23:14.788Z,26.00
2018-07-28T04:25:43.468Z,24.03
2018-07-28T04:28:12.098Z,21.27
2018-07-28T04:30:40.703Z,29.00
2018-07-28T04:33:09.349Z,36.07
2018-07-28T04:35:37.950Z,32.97
2018-07-28T04:38:06.588Z,27.03
2018-07-28T04:40:35.217Z,25.83
2018-07-28T04:43:03.994Z,25.03
2018-07-28T04:45:32.618Z,22.13
2018-07-28T04:48:01.262Z,21.67
2018-07-28T04:50:29.915Z,23.77
2018-07-28T04:52:58.375Z,19.17
2018-07-28T04:55:27.047Z,18.70
2018-07-28T04:57:55.692Z,20.07
2018-07-28T05:00:24.171Z,29.80
2018-07-28T05:02:52.817Z,31.20
2018-07-28T05:05:21.465Z,24.43
2018-07-28T05:07:50.425Z,21.23
2018-07-28T05:10:19.093Z,23.03
2018-07-28T05:12:48.632Z,20.27
2018-07-28T05:15:17.290Z,21.40
2018-07-28T05:17:45.754Z,19.03
2018-07-28T05:20:14.396Z,19.30
2018-07-28T05:22:43.176Z,17.43
2018-07-28T05:25:11.916Z,23.40
2018-07-28T05:27:40.584Z,14.90
2018-07-28T05:30:10.740Z,18.23
2018-07-28T05:32:39.459Z,18.63
2018-07-28T05:35:09.631Z,16.00
2018-07-28T05:37:38.450Z,19.60
2018-07-28T05:40:07.163Z,16.63
2018-07-28T05:42:35.841Z,19.17
2018-07-28T05:45:05.348Z,17.50
2018-07-28T05:47:34.226Z,16.43
2018-07-28T05:50:03.067Z,16.10
2018-07-28T05:52:31.858Z,17.73
2018-07-28T05:55:00.545Z,17.63
2018-07-28T05:57:29.323Z,17.40
2018-07-28T05:59:57.963Z,16.80
2018-07-28T06:02:26.845Z,18.77
2018-07-28T06:04:56.299Z,17.60
2018-07-28T06:07:24.984Z,17.37
2018-07-28T06:09:54.014Z,20.00
2018-07-28T06:12:22.769Z,19.37
2018-07-28T06:14:51.641Z,26.93
2018-07-28T06:17:20.410Z,28.27
2018-07-28T06:19:49.128Z,33.87
2018-07-28T06:22:17.773Z,33.90
2018-07-28T06:24:46.556Z,35.57
2018-07-28T06:27:15.369Z,35.93
2018-07-28T06:29:44.476Z,36.83
2018-07-28T06:32:13.226Z,38.17
2018-07-28T06:34:42.306Z,30.53
2018-07-28T06:37:11.058Z,34.97
2018-07-28T06:39:39.717Z,33.20
2018-07-28T06:42:08.380Z,36.20
2018-07-28T06:44:36.983Z,37.57
2018-07-28T06:47:05.985Z,39.23
2018-07-28T06:49:34.618Z,35.10
2018-07-28T06:52:03.104Z,37.97
2018-07-28T06:54:31.770Z,30.27
2018-07-28T06:57:00.396Z,32.37
2018-07-28T06:59:29.030Z,31.63
2018-07-28T07:01:57.678Z,25.87
2018-07-28T07:04:26.303Z,25.55
2018-07-28T07:06:54.931Z,28.37
2018-07-28T07:09:23.596Z,30.53
2018-07-28T07:11:52.311Z,28.00
2018-07-28T07:14:21.000Z,28.57
2018-07-28T07:16:50.523Z,29.57
2018-07-28T07:19:19.210Z,24.07
2018-07-28T07:21:48.538Z,28.57
2018-07-28T07:24:17.318Z,22.63
2018-07-28T07:26:45.998Z,23.93
2018-07-28T07:29:14.670Z,23.80
2018-07-28T07:31:43.353Z,24.87
2018-07-28T07:34:12.148Z,22.00
2018-07-28T07:36:41.693Z,21.25
2018-07-28T07:39:10.418Z,22.42
2018-07-28T07:41:39.130Z,21.33
2018-07-28T07:44:07.784Z,20.88
2018-07-28T07:46:36.450Z,19.25
2018-07-28T07:49:05.065Z,17.82
2018-07-28T07:51:33.723Z,18.52
2018-07-28T07:54:02.376Z,21.00
2018-07-28T07:56:31.023Z,20.50
2018-07-28T07:58:59.670Z,20.62
2018-07-28T08:01:29.153Z,20.55
2018-07-28T08:03:57.597Z,19.17
2018-07-28T08:06:26.289Z,18.15
2018-07-28T08:08:54.943Z,15.83
2018-07-28T08:11:23.738Z,16.90
2018-07-28T08:13:52.385Z,19.75
2018-07-28T08:16:21.048Z,16.55
2018-07-28T08:18:49.541Z,16.07
2018-07-28T08:21:18.254Z,16.23
2018-07-28T08:23:46.939Z,17.80
2018-07-28T08:26:15.626Z,14.40
2018-07-28T08:28:44.263Z,16.42
2018-07-28T08:31:12.966Z,14.98
2018-07-28T08:33:41.486Z,14.00
2018-07-28T08:36:10.139Z,12.93
2018-07-28T08:38:38.811Z,17.77
2018-07-28T08:41:07.334Z,14.28
2018-07-28T08:43:36.028Z,13.78
2018-07-28T08:46:05.411Z,16.00
2018-07-28T08:48:34.181Z,17.60
2018-07-28T08:51:02.984Z,18.87
2018-07-28T08:53:32.253Z,14.87
2018-07-28T08:56:00.703Z,14.58
2018-07-28T08:58:29.393Z,12.58
2018-07-28T09:00:58.053Z,14.65
2018-07-28T09:03:26.729Z,12.30
2018-07-28T09:05:55.435Z,12.33
2018-07-28T09:08:24.151Z,13.55
2018-07-28T09:10:52.814Z,11.55
2018-07-28T09:13:21.466Z,10.43
2018-07-28T09:15:50.128Z,9.35
2018-07-28T09:18:18.831Z,10.58
2018-07-28T09:20:47.550Z,10.43
2018-07-28T09:23:16.287Z,10.70
2018-07-28T09:25:44.994Z,11.68
2018-07-28T09:28:13.677Z,10.53
2018-07-28T09:30:42.459Z,10.60
2018-07-28T09:33:11.050Z,11.28
2018-07-28T09:35:39.714Z,11.15
2018-07-28T09:38:08.613Z,10.85
2018-07-28T09:40:37.479Z,11.18
2018-07-28T09:43:06.454Z,11.63
2018-07-28T09:45:35.224Z,10.88
2018-07-28T09:48:04.049Z,13.13
2018-07-28T09:50:32.828Z,10.25
2018-07-28T09:53:01.686Z,10.80
2018-07-28T09:55:30.540Z,11.30
2018-07-28T09:57:59.316Z,10.68
2018-07-28T10:00:33.697Z,11.08
2018-07-28T10:03:02.536Z,11.30
2018-07-28T10:05:31.464Z,11.00
2018-07-28T10:08:00.419Z,11.28
2018-07-28T10:10:30.180Z,11.90
2018-07-28T10:12:59.196Z,11.30
2018-07-28T10:15:27.984Z,10.88
2018-07-28T10:17:57.761Z,12.50
2018-07-28T10:20:26.531Z,10.75
2018-07-28T10:22:55.393Z,11.08
2018-07-28T10:25:24.184Z,11.12
2018-07-28T10:27:52.976Z,10.10
2018-07-28T10:30:21.699Z,11.15
2018-07-28T10:32:50.421Z,10.25
2018-07-28T10:35:19.179Z,10.43
2018-07-28T10:37:47.926Z,9.95
2018-07-28T10:40:16.604Z,9.53
2018-07-28T10:42:45.321Z,9.48
2018-07-28T10:45:14.104Z,9.78
2018-07-28T10:47:42.933Z,10.30
2018-07-28T10:50:11.692Z,9.48
2018-07-28T10:52:40.459Z,10.60
2018-07-28T10:55:09.224Z,9.45
2018-07-28T10:57:38.031Z,9.40
2018-07-28T11:00:07.922Z,10.63
2018-07-28T11:02:36.703Z,11.63
2018-07-28T11:05:06.179Z,9.08
2018-07-28T11:07:34.996Z,12.88
2018-07-28T11:10:03.828Z,10.18
2018-07-28T11:12:32.579Z,9.05
2018-07-28T11:15:01.317Z,9.30
2018-07-28T11:17:30.060Z,9.63
2018-07-28T11:19:58.779Z,9.85
2018-07-28T11:22:27.581Z,9.50
2018-07-28T11:24:56.288Z,9.23
2018-07-28T11:27:25.479Z,8.73
2018-07-28T11:29:54.153Z,8.60
2018-07-28T11:32:39.669Z,7.83
2018-07-28T11:35:20.032Z,8.73
2018-07-28T11:38:35.877Z,8.83
2018-07-28T11:41:21.508Z,9.53
2018-07-28T11:44:07.085Z,9.08
2018-07-28T11:46:36.049Z,9.28
2018-07-28T11:49:05.001Z,8.85
2018-07-28T11:51:33.706Z,9.58
2018-07-28T11:54:02.812Z,9.00
2018-07-28T11:56:31.596Z,9.20
2018-07-28T11:59:00.582Z,9.83
2018-07-28T12:01:29.311Z,9.10
2018-07-28T12:03:57.823Z,9.08
2018-07-28T12:06:27.279Z,9.30
2018-07-28T12:08:56.071Z,9.28
2018-07-28T12:11:24.771Z,12.60
2018-07-28T12:13:53.452Z,8.73
2018-07-28T12:16:21.990Z,9.05
2018-07-28T12:18:51.689Z,8.90
2018-07-28T12:21:20.704Z,8.80
2018-07-28T12:23:49.420Z,8.63
2018-07-28T12:26:18.136Z,9.23
2018-07-28T12:28:46.803Z,8.20
2018-07-28T12:31:15.511Z,8.40
2018-07-28T12:33:44.341Z,8.13
2018-07-28T12:36:13.691Z,8.43
2018-07-28T12:38:42.409Z,8.05
2018-07-28T12:41:11.151Z,9.48
2018-07-28T12:43:39.964Z,8.28
2018-07-28T12:46:08.648Z,8.25
2018-07-28T12:48:37.365Z,8.73
2018-07-28T12:51:06.141Z,8.13
2018-07-28T12:53:34.958Z,8.23
2018-07-28T12:56:03.762Z,8.20
2018-07-28T12:58:32.446Z,7.72
2018-07-28T13:01:01.223Z,8.73
2018-07-28T13:03:30.020Z,8.58
2018-07-28T13:05:58.676Z,7.97
2018-07-28T13:08:27.470Z,8.25
2018-07-28T13:10:56.623Z,8.83
2018-07-28T13:13:25.693Z,8.60
2018-07-28T13:15:54.183Z,8.63
2018-07-28T13:18:22.971Z,8.68
2018-07-28T13:20:51.760Z,9.48
2018-07-28T13:23:20.488Z,8.95
2018-07-28T13:25:49.188Z,8.95
2018-07-28T13:28:17.886Z,8.13
2018-07-28T13:30:46.579Z,9.33
2018-07-28T13:33:16.094Z,8.38
2018-07-28T13:35:44.969Z,8.58
2018-07-28T13:38:13.892Z,8.63
2018-07-28T13:40:42.627Z,9.33
2018-07-28T13:43:11.293Z,8.40
2018-07-28T13:45:40.984Z,9.50
2018-07-28T13:48:09.705Z,8.75
2018-07-28T13:50:38.461Z,8.65
2018-07-28T13:53:08.024Z,8.30
2018-07-28T13:55:36.711Z,8.65
2018-07-28T13:58:05.563Z,8.85
2018-07-28T14:00:34.736Z,11.10
2018-07-28T14:03:03.939Z,9.08
2018-07-28T14:05:34.286Z,9.68
2018-07-28T14:08:03.119Z,10.65
2018-07-28T14:10:31.793Z,9.15
2018-07-28T14:13:00.628Z,8.43
2018-07-28T14:15:29.396Z,8.38
2018-07-28T14:17:58.135Z,8.88
2018-07-28T14:20:27.156Z,7.97
2018-07-28T14:22:56.326Z,8.68
2018-07-28T14:25:25.155Z,9.05
2018-07-28T14:27:54.839Z,8.95
2018-07-28T14:30:23.597Z,7.35
2018-07-28T14:32:53.015Z,14.30
2018-07-28T14:35:21.778Z,10.70
2018-07-28T14:37:50.592Z,9.08
2018-07-28T14:40:20.751Z,8.70
2018-07-28T14:42:49.560Z,8.88
2018-07-28T14:45:18.551Z,9.75
2018-07-28T14:47:47.378Z,8.00
2018-07-28T14:50:16.149Z,9.78
2018-07-28T14:52:44.946Z,6.92
2018-07-28T14:55:13.752Z,9.30
2018-07-28T14:57:42.812Z,7.67
2018-07-28T15:00:11.949Z,8.53
2018-07-28T15:02:40.698Z,8.80
2018-07-28T15:05:09.474Z,7.58
2018-07-28T15:07:38.756Z,8.35
2018-07-28T15:10:07.619Z,10.15
2018-07-28T15:12:36.306Z,8.43
2018-07-28T15:15:05.677Z,8.55
2018-07-28T15:17:34.432Z,8.93
2018-07-28T15:20:03.512Z,8.13
2018-07-28T15:22:33.071Z,7.90
2018-07-28T15:25:01.833Z,9.18
2018-07-28T15:27:30.554Z,8.93
2018-07-28T15:29:59.232Z,9.28
2018-07-28T15:32:28.495Z,8.90
2018-07-28T15:34:57.420Z,8.90
2018-07-28T15:37:26.226Z,9.93
2018-07-28T15:39:55.411Z,7.62
2018-07-28T15:42:24.651Z,7.62
2018-07-28T15:44:53.418Z,12.00
2018-07-28T15:47:22.199Z,9.30
2018-07-28T15:49:50.834Z,9.43
2018-07-28T15:52:20.746Z,8.73
2018-07-28T15:54:50.271Z,10.28
2018-07-28T15:57:18.937Z,7.37
2018-07-28T15:59:48.773Z,8.28
2018-07-28T16:02:17.424Z,9.68
2018-07-28T16:04:46.199Z,9.35
2018-07-28T16:07:15.011Z,7.67
2018-07-28T16:09:43.760Z,7.55
2018-07-28T16:12:12.482Z,7.17
2018-07-28T16:14:41.126Z,8.03
2018-07-28T16:17:10.448Z,9.50
2018-07-28T16:19:38.911Z,8.43
2018-07-28T16:22:07.597Z,7.87
2018-07-28T16:24:36.703Z,8.25
2018-07-28T16:27:05.751Z,9.25
2018-07-28T16:29:34.874Z,9.25
2018-07-28T16:32:03.623Z,10.25
2018-07-28T16:34:32.316Z,8.20
2018-07-28T16:37:01.131Z,9.63
2018-07-28T16:39:29.840Z,8.20
2018-07-28T16:41:59.411Z,6.37
2018-07-28T16:44:30.805Z,10.35
2018-07-28T16:46:59.335Z,6.72
2018-07-28T16:49:27.959Z,9.95
2018-07-28T16:51:56.390Z,8.88
2018-07-28T16:54:25.028Z,9.65
2018-07-28T16:56:53.852Z,10.50
2018-07-28T16:59:22.483Z,12.45
2018-07-28T17:01:51.136Z,8.40
2018-07-28T17:04:19.903Z,15.98
2018-07-28T17:06:48.749Z,10.85
2018-07-28T17:09:17.418Z,10.03
2018-07-28T17:11:46.149Z,10.70
2018-07-28T17:14:14.954Z,9.13
2018-07-28T17:16:43.655Z,8.33
2018-07-28T17:19:12.338Z,10.20
2018-07-28T17:21:41.123Z,10.70
2018-07-28T17:24:09.769Z,8.00
2018-07-28T17:26:38.376Z,8.70
2018-07-28T17:29:07.063Z,8.65
2018-07-28T17:31:36.903Z,11.73
2018-07-28T17:34:06.386Z,11.03
2018-07-28T17:36:35.091Z,7.87
2018-07-28T17:39:05.211Z,7.78
2018-07-28T17:41:33.917Z,9.63
2018-07-28T17:44:02.655Z,9.00
2018-07-28T17:46:31.356Z,13.38
2018-07-28T17:49:00.072Z,10.38
2018-07-28T17:51:28.810Z,8.98
2018-07-28T17:53:57.508Z,8.40
2018-07-28T17:56:26.198Z,11.03
2018-07-28T17:58:54.862Z,8.05
2018-07-28T18:01:23.508Z,14.80
2018-07-28T18:03:52.169Z,7.05
2018-07-28T18:06:20.913Z,7.90
2018-07-28T18:08:49.743Z,10.70
2018-07-28T18:11:18.405Z,8.03
2018-07-28T18:13:47.037Z,8.73
2018-07-28T18:16:15.659Z,9.28
2018-07-28T18:18:44.358Z,7.80
2018-07-28T18:21:12.996Z,8.35
2018-07-28T18:23:41.601Z,8.43
2018-07-28T18:26:10.297Z,9.20
2018-07-28T18:28:38.905Z,8.23
2018-07-28T18:31:07.544Z,8.68
2018-07-28T18:33:36.222Z,7.53
2018-07-28T18:36:05.091Z,9.08
2018-07-28T18:38:33.815Z,9.93
2018-07-28T18:41:02.587Z,9.55
2018-07-28T18:43:31.256Z,8.55
2018-07-28T18:45:59.898Z,8.05
2018-07-28T18:48:28.525Z,14.53
2018-07-28T18:50:57.256Z,7.70
2018-07-28T18:53:25.923Z,7.55
2018-07-28T18:55:54.681Z,10.53
2018-07-28T18:58:23.296Z,10.90
2018-07-28T19:00:51.950Z,8.78
2018-07-28T19:03:20.604Z,10.70
2018-07-28T19:05:49.233Z,7.83
2018-07-28T19:08:17.938Z,8.05
2018-07-28T19:10:46.471Z,12.30
2018-07-28T19:13:20.638Z,9.48
2018-07-28T19:15:49.301Z,10.63
2018-07-28T19:18:23.414Z,17.07
2018-07-28T19:20:52.317Z,12.82
2018-07-28T19:23:27.336Z,14.37
2018-07-28T19:25:56.183Z,16.35
2018-07-28T19:29:34.178Z,13.70
2018-07-28T19:32:03.865Z,13.13
2018-07-28T19:34:32.402Z,13.03
2018-07-28T19:37:06.494Z,11.80
2018-07-28T19:39:35.313Z,11.80
2018-07-28T19:42:09.737Z,14.55
2018-07-28T19:44:38.619Z,16.43
2018-07-28T19:47:08.006Z,12.50
2018-07-28T19:49:37.403Z,8.03
2018-07-28T19:52:06.338Z,11.10
2018-07-28T19:54:35.122Z,8.27
2018-07-28T19:57:03.945Z,8.60
2018-07-28T19:59:32.704Z,10.60
2018-07-28T20:02:01.189Z,7.03
2018-07-28T20:04:29.856Z,9.37
2018-07-28T20:06:58.635Z,9.20
2018-07-28T20:09:27.386Z,7.92
2018-07-28T20:11:56.112Z,7.50
2018-07-28T20:14:24.862Z,9.03
2018-07-28T20:16:53.589Z,10.93
2018-07-28T20:19:22.400Z,13.13
2018-07-28T20:21:51.681Z,10.27
2018-07-28T20:24:20.406Z,12.93
2018-07-28T20:26:49.139Z,12.47
2018-07-28T20:29:17.806Z,11.33
2018-07-28T20:31:46.501Z,12.80
2018-07-28T20:34:15.331Z,13.50
2018-07-28T20:36:43.826Z,9.47
2018-07-28T20:39:12.988Z,8.50
2018-07-28T20:41:43.682Z,9.23
2018-07-28T20:44:12.437Z,12.73
2018-07-28T20:46:41.680Z,7.53
2018-07-28T20:49:10.357Z,12.07
2018-07-28T20:51:39.065Z,12.03
2018-07-28T20:54:07.918Z,10.00
2018-07-28T20:56:36.631Z,8.83
2018-07-28T20:59:05.624Z,14.83
2018-07-28T21:01:34.303Z,10.43
2018-07-28T21:04:03.058Z,10.47
2018-07-28T21:06:31.806Z,11.73
2018-07-28T21:09:00.651Z,13.63
2018-07-28T21:11:29.313Z,14.47
2018-07-28T21:13:58.056Z,12.27
2018-07-28T21:16:26.695Z,10.57
2018-07-28T21:18:55.476Z,10.03
2018-07-28T21:21:23.955Z,12.83
2018-07-28T21:23:52.657Z,9.97
2018-07-28T21:26:22.282Z,13.90
2018-07-28T21:28:51.815Z,11.50
2018-07-28T21:31:20.615Z,10.13
2018-07-28T21:33:49.736Z,11.50
2018-07-28T21:36:18.436Z,10.43
2018-07-28T21:38:47.145Z,8.40
2018-07-28T21:41:15.882Z,12.47
2018-07-28T21:43:45.129Z,9.47
2018-07-28T21:46:13.866Z,13.50
2018-07-28T21:48:42.378Z,11.37
2018-07-28T21:51:11.175Z,13.67
2018-07-28T21:53:40.013Z,11.67
2018-07-28T21:56:08.730Z,10.77
2018-07-28T21:58:37.408Z,11.10
2018-07-28T22:01:13.194Z,12.07
2018-07-28T22:03:42.251Z,9.87
2018-07-28T22:06:11.057Z,11.87
2018-07-28T22:08:39.718Z,11.07
2018-07-28T22:11:08.268Z,11.57
2018-07-28T22:13:37.013Z,10.50
2018-07-28T22:16:05.798Z,12.87
2018-07-28T22:18:34.429Z,17.30
2018-07-28T22:21:03.161Z,14.43
2018-07-28T22:23:31.846Z,11.13
2018-07-28T22:26:00.933Z,8.40
2018-07-28T22:28:29.711Z,11.73
2018-07-28T22:30:58.150Z,8.27
2018-07-28T22:33:27.047Z,8.50
2018-07-28T22:35:55.730Z,12.47
2018-07-28T22:38:24.433Z,10.87
2018-07-28T22:40:53.183Z,9.10
2018-07-28T22:43:21.813Z,13.37
2018-07-28T22:45:50.459Z,8.50
2018-07-28T22:48:19.630Z,9.60
2018-07-28T22:50:48.360Z,9.43
2018-07-28T22:53:17.086Z,8.73
2018-07-28T22:55:45.966Z,9.57
2018-07-28T22:58:14.421Z,13.27
2018-07-28T23:00:43.238Z,10.03
2018-07-28T23:03:11.953Z,9.27
2018-07-28T23:05:40.600Z,10.97
2018-07-28T23:08:09.196Z,12.20
2018-07-28T23:10:37.670Z,7.83
2018-07-28T23:13:06.215Z,7.20
2018-07-28T23:15:34.945Z,10.10
2018-07-28T23:18:03.499Z,11.13
2018-07-28T23:20:32.269Z,8.37
2018-07-28T23:23:01.058Z,11.10
2018-07-28T23:25:29.697Z,8.30
2018-07-28T23:27:58.332Z,10.90
2018-07-28T23:30:27.573Z,11.77
2018-07-28T23:32:56.463Z,11.07
2018-07-28T23:35:25.051Z,10.13
2018-07-28T23:37:53.741Z,8.77
2018-07-28T23:40:22.466Z,10.43
2018-07-28T23:42:51.263Z,9.47
2018-07-28T23:45:20.270Z,10.63
2018-07-28T23:47:48.961Z,8.47
2018-07-28T23:50:17.677Z,12.30
2018-07-28T23:52:46.414Z,12.67
2018-07-28T23:55:15.011Z,9.80
2018-07-28T23:57:43.721Z,12.90
